sensor_id;sensor_type;location;lat;lon;timestamp;P1;durP1;ratioP1;P2;durP2;ratioP2
13374;SDS011;6756;51.354;15.754;2023-04-01T00:01:57;3.13;;;1.70;;
13374;SDS011;6756;51.354;15.754;2023-04-01T00:05:58;3.67;;;1.90;;
13374;SDS011;6756;51.354;15.754;2023-04-01T00:10:00;4.00;;;1.73;;
13374;SDS011;6756;51.354;15.754;2023-04-01T00:14:00;2.17;;;1.43;;
13374;SDS011;6756;51.354;15.754;2023-04-01T00:18:01;4.80;;;2.03;;
13374;SDS011;6756;51.354;15.754;2023-04-01T00:22:02;2.57;;;1.57;;
13374;SDS011;6756;51.354;15.754;2023-04-01T00:26:03;4.50;;;1.70;;
13374;SDS011;6756;51.354;15.754;2023-04-01T00:30:05;4.63;;;2.23;;
13374;SDS011;6756;51.354;15.754;2023-04-01T00:34:07;3.00;;;2.07;;
13374;SDS011;6756;51.354;15.754;2023-04-01T00:38:08;8.93;;;2.20;;
13374;SDS011;6756;51.354;15.754;2023-04-01T00:42:11;4.80;;;2.20;;
13374;SDS011;6756;51.354;15.754;2023-04-01T00:46:12;4.50;;;2.20;;
13374;SDS011;6756;51.354;15.754;2023-04-01T00:50:13;4.73;;;2.13;;
13374;SDS011;6756;51.354;15.754;2023-04-01T00:54:14;4.87;;;2.60;;
13374;SDS011;6756;51.354;15.754;2023-04-01T00:58:17;4.73;;;2.20;;
13374;SDS011;6756;51.354;15.754;2023-04-01T01:02:21;6.07;;;2.53;;
13374;SDS011;6756;51.354;15.754;2023-04-01T01:06:29;5.93;;;2.80;;
13374;SDS011;6756;51.354;15.754;2023-04-01T01:10:43;5.53;;;2.17;;
13374;SDS011;6756;51.354;15.754;2023-04-01T01:19:08;7.40;;;2.30;;
13374;SDS011;6756;51.354;15.754;2023-04-01T01:27:54;7.23;;;2.33;;
13374;SDS011;6756;51.354;15.754;2023-04-01T01:32:41;7.23;;;2.47;;
13374;SDS011;6756;51.354;15.754;2023-04-01T01:37:03;3.13;;;1.90;;
13374;SDS011;6756;51.354;15.754;2023-04-01T01:41:10;5.23;;;2.43;;
13374;SDS011;6756;51.354;15.754;2023-04-01T01:45:12;7.60;;;2.27;;
13374;SDS011;6756;51.354;15.754;2023-04-01T01:49:17;5.00;;;2.23;;
13374;SDS011;6756;51.354;15.754;2023-04-01T01:53:20;3.40;;;1.50;;
13374;SDS011;6756;51.354;15.754;2023-04-01T01:57:26;2.57;;;1.60;;
13374;SDS011;6756;51.354;15.754;2023-04-01T02:01:35;4.40;;;1.80;;
13374;SDS011;6756;51.354;15.754;2023-04-01T02:05:40;7.03;;;2.27;;
13374;SDS011;6756;51.354;15.754;2023-04-01T02:09:41;3.53;;;2.20;;
13374;SDS011;6756;51.354;15.754;2023-04-01T02:13:48;3.37;;;2.00;;
13374;SDS011;6756;51.354;15.754;2023-04-01T02:18:01;3.47;;;2.00;;
13374;SDS011;6756;51.354;15.754;2023-04-01T02:22:04;5.57;;;2.63;;
13374;SDS011;6756;51.354;15.754;2023-04-01T02:26:08;5.33;;;2.00;;
13374;SDS011;6756;51.354;15.754;2023-04-01T02:30:12;2.90;;;1.90;;
13374;SDS011;6756;51.354;15.754;2023-04-01T02:34:14;6.33;;;2.13;;
13374;SDS011;6756;51.354;15.754;2023-04-01T02:38:15;3.43;;;1.97;;
13374;SDS011;6756;51.354;15.754;2023-04-01T02:42:16;7.83;;;1.93;;
13374;SDS011;6756;51.354;15.754;2023-04-01T02:46:17;3.30;;;1.87;;
13374;SDS011;6756;51.354;15.754;2023-04-01T02:50:18;2.83;;;1.70;;
13374;SDS011;6756;51.354;15.754;2023-04-01T02:54:19;5.80;;;2.20;;
13374;SDS011;6756;51.354;15.754;2023-04-01T02:58:19;7.20;;;2.40;;
13374;SDS011;6756;51.354;15.754;2023-04-01T03:02:20;4.90;;;2.30;;
13374;SDS011;6756;51.354;15.754;2023-04-01T03:06:21;4.53;;;1.93;;
13374;SDS011;6756;51.354;15.754;2023-04-01T03:10:22;4.77;;;2.37;;
13374;SDS011;6756;51.354;15.754;2023-04-01T03:14:23;3.07;;;2.00;;
13374;SDS011;6756;51.354;15.754;2023-04-01T03:18:23;3.13;;;1.80;;
13374;SDS011;6756;51.354;15.754;2023-04-01T03:22:24;4.83;;;1.83;;
13374;SDS011;6756;51.354;15.754;2023-04-01T03:26:25;4.23;;;1.83;;
13374;SDS011;6756;51.354;15.754;2023-04-01T03:30:29;4.03;;;1.90;;
13374;SDS011;6756;51.354;15.754;2023-04-01T03:34:31;2.00;;;1.70;;
13374;SDS011;6756;51.354;15.754;2023-04-01T03:38:32;3.37;;;2.00;;
13374;SDS011;6756;51.354;15.754;2023-04-01T03:42:34;3.70;;;1.80;;
13374;SDS011;6756;51.354;15.754;2023-04-01T03:46:35;3.13;;;2.27;;
13374;SDS011;6756;51.354;15.754;2023-04-01T03:50:36;2.73;;;1.67;;
13374;SDS011;6756;51.354;15.754;2023-04-01T03:54:36;5.77;;;2.00;;
13374;SDS011;6756;51.354;15.754;2023-04-01T03:58:37;4.33;;;2.03;;
13374;SDS011;6756;51.354;15.754;2023-04-01T04:02:39;4.73;;;1.87;;
13374;SDS011;6756;51.354;15.754;2023-04-01T04:06:39;4.97;;;1.90;;
13374;SDS011;6756;51.354;15.754;2023-04-01T04:10:41;1.90;;;1.67;;
13374;SDS011;6756;51.354;15.754;2023-04-01T04:14:42;4.17;;;1.90;;
13374;SDS011;6756;51.354;15.754;2023-04-01T04:18:42;3.97;;;1.90;;
13374;SDS011;6756;51.354;15.754;2023-04-01T04:22:43;3.47;;;1.70;;
13374;SDS011;6756;51.354;15.754;2023-04-01T04:26:44;4.93;;;1.67;;
13374;SDS011;6756;51.354;15.754;2023-04-01T04:30:45;3.97;;;1.87;;
13374;SDS011;6756;51.354;15.754;2023-04-01T04:34:46;3.80;;;2.03;;
13374;SDS011;6756;51.354;15.754;2023-04-01T04:38:47;3.80;;;1.93;;
13374;SDS011;6756;51.354;15.754;2023-04-01T04:42:48;5.47;;;2.10;;
13374;SDS011;6756;51.354;15.754;2023-04-01T04:46:49;3.80;;;2.00;;
13374;SDS011;6756;51.354;15.754;2023-04-01T04:50:50;3.67;;;1.80;;
13374;SDS011;6756;51.354;15.754;2023-04-01T04:54:51;3.03;;;1.93;;
13374;SDS011;6756;51.354;15.754;2023-04-01T04:58:52;4.40;;;2.03;;
13374;SDS011;6756;51.354;15.754;2023-04-01T05:02:53;4.40;;;1.73;;
13374;SDS011;6756;51.354;15.754;2023-04-01T05:06:54;5.03;;;2.33;;
13374;SDS011;6756;51.354;15.754;2023-04-01T05:10:55;4.10;;;1.80;;
13374;SDS011;6756;51.354;15.754;2023-04-01T05:14:56;7.00;;;1.97;;
13374;SDS011;6756;51.354;15.754;2023-04-01T05:18:57;2.60;;;2.00;;
13374;SDS011;6756;51.354;15.754;2023-04-01T05:22:58;4.63;;;1.93;;
13374;SDS011;6756;51.354;15.754;2023-04-01T05:26:59;5.67;;;1.70;;
13374;SDS011;6756;51.354;15.754;2023-04-01T05:31:00;4.53;;;2.00;;
13374;SDS011;6756;51.354;15.754;2023-04-01T05:35:03;4.20;;;2.03;;
13374;SDS011;6756;51.354;15.754;2023-04-01T05:39:04;3.43;;;2.10;;
13374;SDS011;6756;51.354;15.754;2023-04-01T05:43:05;4.27;;;1.90;;
13374;SDS011;6756;51.354;15.754;2023-04-01T05:47:06;4.00;;;2.07;;
13374;SDS011;6756;51.354;15.754;2023-04-01T05:51:11;4.10;;;1.87;;
13374;SDS011;6756;51.354;15.754;2023-04-01T05:55:13;3.53;;;1.57;;
13374;SDS011;6756;51.354;15.754;2023-04-01T05:59:14;3.07;;;1.70;;
13374;SDS011;6756;51.354;15.754;2023-04-01T06:03:15;5.23;;;1.60;;
13374;SDS011;6756;51.354;15.754;2023-04-01T06:07:16;3.83;;;1.40;;
13374;SDS011;6756;51.354;15.754;2023-04-01T06:15:47;4.80;;;1.30;;
13374;SDS011;6756;51.354;15.754;2023-04-01T06:33:22;2.43;;;1.07;;
13374;SDS011;6756;51.354;15.754;2023-04-01T06:37:40;2.70;;;0.73;;
13374;SDS011;6756;51.354;15.754;2023-04-01T06:42:02;4.57;;;1.20;;
13374;SDS011;6756;51.354;15.754;2023-04-01T06:50:32;3.77;;;1.30;;
13374;SDS011;6756;51.354;15.754;2023-04-01T06:55:12;6.73;;;1.20;;
13374;SDS011;6756;51.354;15.754;2023-04-01T06:59:32;3.30;;;0.90;;
13374;SDS011;6756;51.354;15.754;2023-04-01T07:03:36;2.87;;;1.00;;
13374;SDS011;6756;51.354;15.754;2023-04-01T07:07:42;4.07;;;1.20;;
13374;SDS011;6756;51.354;15.754;2023-04-01T07:11:49;2.70;;;1.10;;
13374;SDS011;6756;51.354;15.754;2023-04-01T07:16:04;3.73;;;1.10;;
13374;SDS011;6756;51.354;15.754;2023-04-01T07:20:18;4.40;;;1.00;;
13374;SDS011;6756;51.354;15.754;2023-04-01T07:28:44;3.03;;;1.00;;
13374;SDS011;6756;51.354;15.754;2023-04-01T07:32:47;4.97;;;1.20;;
13374;SDS011;6756;51.354;15.754;2023-04-01T07:37:00;3.53;;;1.10;;
13374;SDS011;6756;51.354;15.754;2023-04-01T07:59:05;2.37;;;1.03;;
13374;SDS011;6756;51.354;15.754;2023-04-01T08:03:35;4.23;;;1.40;;
13374;SDS011;6756;51.354;15.754;2023-04-01T08:12:17;3.10;;;1.20;;
13374;SDS011;6756;51.354;15.754;2023-04-01T08:21:24;2.97;;;1.20;;
13374;SDS011;6756;51.354;15.754;2023-04-01T08:25:31;2.40;;;1.13;;
13374;SDS011;6756;51.354;15.754;2023-04-01T08:33:57;2.10;;;1.30;;
13374;SDS011;6756;51.354;15.754;2023-04-01T08:38:04;2.30;;;1.50;;
13374;SDS011;6756;51.354;15.754;2023-04-01T08:56:26;1.97;;;1.40;;
13374;SDS011;6756;51.354;15.754;2023-04-01T09:00:49;5.27;;;1.40;;
13374;SDS011;6756;51.354;15.754;2023-04-01T09:53:13;4.10;;;1.73;;
13374;SDS011;6756;51.354;15.754;2023-04-01T10:20:18;2.53;;;1.20;;
13374;SDS011;6756;51.354;15.754;2023-04-01T10:46:22;2.73;;;1.07;;
13374;SDS011;6756;51.354;15.754;2023-04-01T10:50:51;3.43;;;1.47;;
13374;SDS011;6756;51.354;15.754;2023-04-01T10:59:43;2.60;;;0.90;;
13374;SDS011;6756;51.354;15.754;2023-04-01T11:17:10;1.87;;;0.80;;
13374;SDS011;6756;51.354;15.754;2023-04-01T11:26:01;3.07;;;0.70;;
13374;SDS011;6756;51.354;15.754;2023-04-01T11:34:35;1.50;;;0.60;;
13374;SDS011;6756;51.354;15.754;2023-04-01T11:38:57;2.87;;;0.70;;
13374;SDS011;6756;51.354;15.754;2023-04-01T11:57:12;1.97;;;0.50;;
13374;SDS011;6756;51.354;15.754;2023-04-01T12:01:36;2.33;;;0.53;;
13374;SDS011;6756;51.354;15.754;2023-04-01T12:28:00;2.30;;;0.57;;
13374;SDS011;6756;51.354;15.754;2023-04-01T12:36:40;0.53;;;0.33;;
13374;SDS011;6756;51.354;15.754;2023-04-01T13:11:41;1.40;;;0.60;;
13374;SDS011;6756;51.354;15.754;2023-04-01T13:36:36;2.73;;;2.00;;
13374;SDS011;6756;51.354;15.754;2023-04-01T13:45:01;2.50;;;1.67;;
13374;SDS011;6756;51.354;15.754;2023-04-01T13:58:38;4.70;;;2.73;;
13374;SDS011;6756;51.354;15.754;2023-04-01T14:11:55;3.67;;;2.60;;
13374;SDS011;6756;51.354;15.754;2023-04-01T14:25:30;3.77;;;1.60;;
13374;SDS011;6756;51.354;15.754;2023-04-01T14:29:49;2.73;;;1.63;;
13374;SDS011;6756;51.354;15.754;2023-04-01T14:38:28;1.70;;;1.40;;
13374;SDS011;6756;51.354;15.754;2023-04-01T14:47:18;1.63;;;1.30;;
13374;SDS011;6756;51.354;15.754;2023-04-01T14:55:50;1.60;;;1.40;;
13374;SDS011;6756;51.354;15.754;2023-04-01T14:59:54;2.87;;;1.93;;
13374;SDS011;6756;51.354;15.754;2023-04-01T15:08:24;3.23;;;1.90;;
13374;SDS011;6756;51.354;15.754;2023-04-01T15:12:36;7.13;;;5.63;;
13374;SDS011;6756;51.354;15.754;2023-04-01T15:46:53;2.23;;;1.90;;
13374;SDS011;6756;51.354;15.754;2023-04-01T15:51:11;2.83;;;1.70;;
13374;SDS011;6756;51.354;15.754;2023-04-01T16:17:24;5.97;;;4.63;;
13374;SDS011;6756;51.354;15.754;2023-04-01T16:25:49;9.00;;;5.57;;
13374;SDS011;6756;51.354;15.754;2023-04-01T16:34:44;8.23;;;5.80;;
13374;SDS011;6756;51.354;15.754;2023-04-01T16:43:41;20.37;;;14.00;;
13374;SDS011;6756;51.354;15.754;2023-04-01T16:47:49;23.67;;;17.43;;
13374;SDS011;6756;51.354;15.754;2023-04-01T16:56:13;10.83;;;8.27;;
13374;SDS011;6756;51.354;15.754;2023-04-01T17:13:26;90.93;;;62.87;;
13374;SDS011;6756;51.354;15.754;2023-04-01T17:17:37;51.40;;;34.43;;
13374;SDS011;6756;51.354;15.754;2023-04-01T17:26:37;17.67;;;12.30;;
13374;SDS011;6756;51.354;15.754;2023-04-01T17:30:45;15.77;;;12.67;;
13374;SDS011;6756;51.354;15.754;2023-04-01T17:35:13;16.60;;;11.57;;
13374;SDS011;6756;51.354;15.754;2023-04-01T17:39:44;23.60;;;16.90;;
13374;SDS011;6756;51.354;15.754;2023-04-01T18:19:44;173.30;;;89.43;;
13374;SDS011;6756;51.354;15.754;2023-04-01T18:24:00;53.97;;;31.63;;
13374;SDS011;6756;51.354;15.754;2023-04-01T18:28:14;36.73;;;23.50;;
13374;SDS011;6756;51.354;15.754;2023-04-01T18:37:27;56.07;;;36.00;;
13374;SDS011;6756;51.354;15.754;2023-04-01T18:46:03;52.80;;;30.87;;
13374;SDS011;6756;51.354;15.754;2023-04-01T18:50:22;66.93;;;38.87;;
13374;SDS011;6756;51.354;15.754;2023-04-01T18:54:33;94.97;;;55.17;;
13374;SDS011;6756;51.354;15.754;2023-04-01T19:07:41;39.77;;;26.63;;
13374;SDS011;6756;51.354;15.754;2023-04-01T19:11:45;45.73;;;31.13;;
13374;SDS011;6756;51.354;15.754;2023-04-01T19:24:41;41.10;;;27.63;;
13374;SDS011;6756;51.354;15.754;2023-04-01T19:37:45;38.53;;;23.27;;
13374;SDS011;6756;51.354;15.754;2023-04-01T19:42:11;36.13;;;24.10;;
13374;SDS011;6756;51.354;15.754;2023-04-01T19:59:02;49.97;;;32.53;;
13374;SDS011;6756;51.354;15.754;2023-04-01T20:07:54;33.53;;;23.40;;
13374;SDS011;6756;51.354;15.754;2023-04-01T20:12:24;33.50;;;23.53;;
13374;SDS011;6756;51.354;15.754;2023-04-01T20:16:39;24.33;;;17.90;;
13374;SDS011;6756;51.354;15.754;2023-04-01T20:21:00;25.23;;;18.33;;
13374;SDS011;6756;51.354;15.754;2023-04-01T20:25:10;23.07;;;18.03;;
13374;SDS011;6756;51.354;15.754;2023-04-01T20:50:57;24.90;;;19.70;;
13374;SDS011;6756;51.354;15.754;2023-04-01T20:55:03;29.67;;;22.20;;
13374;SDS011;6756;51.354;15.754;2023-04-01T21:16:37;28.50;;;22.13;;
13374;SDS011;6756;51.354;15.754;2023-04-01T21:21:21;35.10;;;28.60;;
13374;SDS011;6756;51.354;15.754;2023-04-01T21:47:14;31.60;;;22.63;;
13374;SDS011;6756;51.354;15.754;2023-04-01T22:14:29;27.80;;;18.00;;
13374;SDS011;6756;51.354;15.754;2023-04-01T22:18:47;39.13;;;22.27;;
13374;SDS011;6756;51.354;15.754;2023-04-01T22:27:12;22.77;;;14.87;;
13374;SDS011;6756;51.354;15.754;2023-04-01T22:31:26;23.53;;;15.63;;
13374;SDS011;6756;51.354;15.754;2023-04-01T22:43:57;31.10;;;18.33;;
13374;SDS011;6756;51.354;15.754;2023-04-01T22:56:15;30.87;;;18.97;;
13374;SDS011;6756;51.354;15.754;2023-04-01T23:00:25;32.20;;;18.83;;
13374;SDS011;6756;51.354;15.754;2023-04-01T23:04:35;31.40;;;18.30;;
13374;SDS011;6756;51.354;15.754;2023-04-01T23:12:51;20.30;;;13.30;;
13374;SDS011;6756;51.354;15.754;2023-04-01T23:17:00;26.63;;;16.77;;
13374;SDS011;6756;51.354;15.754;2023-04-01T23:21:26;50.40;;;22.43;;
13374;SDS011;6756;51.354;15.754;2023-04-01T23:29:54;16.93;;;12.13;;
13374;SDS011;6756;51.354;15.754;2023-04-01T23:33:56;24.23;;;17.07;;
13374;SDS011;6756;51.354;15.754;2023-04-01T23:38:14;15.20;;;12.17;;
13374;SDS011;6756;51.354;15.754;2023-04-01T23:42:21;15.07;;;12.77;;
13374;SDS011;6756;51.354;15.754;2023-04-01T23:46:29;15.20;;;12.50;;
13374;SDS011;6756;51.354;15.754;2023-04-01T23:50:32;22.17;;;17.57;;
13374;SDS011;6756;51.354;15.754;2023-04-01T23:54:34;21.83;;;17.90;;
13374;SDS011;6756;51.354;15.754;2023-04-01T23:58:48;19.73;;;15.23;;
